createdAt,value
2022-08-05T00:00:56.083Z,1.95
2022-08-05T00:03:45.879Z,2.08
2022-08-05T00:06:27.755Z,1.80
2022-08-05T00:09:00.809Z,1.65
2022-08-05T00:11:34.884Z,1.80
2022-08-05T00:14:12.821Z,2.50
2022-08-05T00:21:35.634Z,1.90
2022-08-05T00:24:09.881Z,1.75
2022-08-05T00:26:38.925Z,1.90
2022-08-05T00:29:14.101Z,2.00
2022-08-05T00:32:10.656Z,2.00
2022-08-05T00:34:54.615Z,1.90
2022-08-05T00:37:16.019Z,1.70
2022-08-05T00:39:57.705Z,1.85
2022-08-05T00:42:34.530Z,2.05
2022-08-05T00:45:02.416Z,2.08
2022-08-05T00:47:52.884Z,2.40
2022-08-05T00:50:17.474Z,2.13
2022-08-05T00:52:45.547Z,1.90
2022-08-05T00:55:14.073Z,1.95
2022-08-05T00:57:58.781Z,1.90
2022-08-05T01:00:30.777Z,2.13
2022-08-05T01:02:59.909Z,2.33
2022-08-05T01:05:27.871Z,2.50
2022-08-05T01:08:40.147Z,2.42
2022-08-05T01:11:09.710Z,2.30
2022-08-05T01:13:59.905Z,2.40
2022-08-05T01:16:34.534Z,2.10
2022-08-05T01:19:19.747Z,2.53
2022-08-05T01:22:34.711Z,2.05
2022-08-05T01:25:16.267Z,1.83
2022-08-05T01:27:58.737Z,2.20
2022-08-05T01:30:33.548Z,2.30
2022-08-05T01:33:08.423Z,2.07
2022-08-05T01:35:51.722Z,2.00
2022-08-05T01:38:27.610Z,1.90
2022-08-05T01:41:01.387Z,1.90
2022-08-05T01:43:31.317Z,2.50
2022-08-05T01:46:07.447Z,1.70
2022-08-05T01:49:22.979Z,2.15
2022-08-05T01:52:00.990Z,1.65
2022-08-05T01:55:15.178Z,1.98
2022-08-05T01:58:10.132Z,2.08
2022-08-05T02:00:37.896Z,1.83
2022-08-05T02:03:22.854Z,2.08
2022-08-05T02:05:59.887Z,1.85
2022-08-05T02:08:32.168Z,2.00
2022-08-05T02:11:08.123Z,2.13
2022-08-05T02:13:53.661Z,1.77
2022-08-05T02:19:27.319Z,2.35
2022-08-05T02:22:02.020Z,2.47
2022-08-05T02:24:36.853Z,2.90
2022-08-05T02:27:09.995Z,2.70
2022-08-05T02:29:58.388Z,2.55
2022-08-05T02:32:31.604Z,2.40
2022-08-05T02:35:09.613Z,2.65
2022-08-05T02:40:27.688Z,2.30
2022-08-05T02:42:56.594Z,2.10
2022-08-05T02:45:25.611Z,2.10
2022-08-05T02:48:07.559Z,2.30
2022-08-05T02:50:44.147Z,2.05
2022-08-05T02:53:19.107Z,2.28
2022-08-05T02:55:54.244Z,2.25
2022-08-05T02:58:27.141Z,2.35
2022-08-05T03:00:56.582Z,2.13
2022-08-05T03:03:25.363Z,2.60
2022-08-05T03:06:53.705Z,2.50
2022-08-05T03:08:42.527Z,2.30
2022-08-05T03:11:55.240Z,2.20
2022-08-05T03:14:08.396Z,1.90
2022-08-05T03:16:37.459Z,2.10
2022-08-05T03:19:17.218Z,2.28
2022-08-05T03:21:52.697Z,2.10
2022-08-05T03:24:29.371Z,2.20
2022-08-05T03:26:59.042Z,1.98
2022-08-05T03:29:44.447Z,2.10
2022-08-05T03:32:19.541Z,2.22
2022-08-05T03:34:50.474Z,2.55
2022-08-05T03:37:22.671Z,2.25
2022-08-05T03:39:59.272Z,2.22
2022-08-05T03:42:32.896Z,2.10
2022-08-05T03:45:21.363Z,2.17
2022-08-05T03:47:51.590Z,2.03
2022-08-05T03:50:20.182Z,1.90
2022-08-05T03:55:06.692Z,1.90
2022-08-05T03:56:10.784Z,1.85
2022-08-05T03:58:47.809Z,1.90
2022-08-05T04:01:21.142Z,2.20
2022-08-05T04:04:10.631Z,2.00
2022-08-05T04:06:48.019Z,2.35
2022-08-05T04:09:20.268Z,1.80
2022-08-05T04:11:56.375Z,1.97
2022-08-05T04:14:33.058Z,2.13
2022-08-05T04:17:00.916Z,2.17
2022-08-05T04:19:30.593Z,1.90
2022-08-05T04:22:10.323Z,2.08
2022-08-05T04:24:43.965Z,2.28
2022-08-05T04:27:13.666Z,2.20
2022-08-05T04:29:41.752Z,2.00
2022-08-05T04:32:10.033Z,1.67
2022-08-05T04:34:43.019Z,2.03
2022-08-05T04:37:11.196Z,2.67
2022-08-05T04:39:39.212Z,2.22
2022-08-05T04:42:07.835Z,2.13
2022-08-05T04:44:39.245Z,2.00
2022-08-05T04:47:08.830Z,2.08
2022-08-05T04:54:57.445Z,2.30
2022-08-05T04:57:37.336Z,1.83
2022-08-05T05:00:06.535Z,2.05
2022-08-05T05:02:36.914Z,1.77
2022-08-05T05:05:16.600Z,1.80
2022-08-05T05:08:04.313Z,1.67
2022-08-05T05:10:42.033Z,1.70
2022-08-05T05:13:23.309Z,1.67
2022-08-05T05:15:59.126Z,1.95
2022-08-05T05:18:33.181Z,1.90
2022-08-05T05:21:03.563Z,2.30
2022-08-05T05:23:39.057Z,2.08
2022-08-05T05:26:19.028Z,1.98
2022-08-05T05:28:49.222Z,2.00
2022-08-05T05:31:16.547Z,2.17
2022-08-05T05:34:02.043Z,1.92
2022-08-05T05:36:31.135Z,2.10
2022-08-05T05:38:59.024Z,2.28
2022-08-05T05:41:26.411Z,1.90
2022-08-05T05:44:36.831Z,2.40
2022-08-05T05:47:04.509Z,2.28
2022-08-05T05:49:43.892Z,1.98
2022-08-05T05:52:26.504Z,2.38
2022-08-05T05:55:07.328Z,2.30
2022-08-05T06:00:34.161Z,2.25
2022-08-05T06:03:09.387Z,2.58
2022-08-05T06:05:55.586Z,2.25
2022-08-05T06:08:32.301Z,2.30
2022-08-05T06:11:00.889Z,2.60
2022-08-05T06:13:28.266Z,2.40
2022-08-05T06:16:28.431Z,2.35
2022-08-05T06:18:55.538Z,2.20
2022-08-05T06:21:35.865Z,1.98
2022-08-05T06:24:07.753Z,2.10
2022-08-05T06:26:51.084Z,2.22
2022-08-05T06:29:46.813Z,1.92
2022-08-05T06:32:26.129Z,2.15
2022-08-05T06:35:06.021Z,2.10
2022-08-05T06:40:27.829Z,2.25
2022-08-05T06:42:59.584Z,2.15
2022-08-05T06:45:43.997Z,2.22
2022-08-05T06:48:54.770Z,1.85
2022-08-05T06:51:03.020Z,1.98
2022-08-05T06:53:39.091Z,2.00
2022-08-05T06:56:07.309Z,1.85
2022-08-05T06:58:53.507Z,2.10
2022-08-05T07:01:21.225Z,1.98
2022-08-05T07:03:50.466Z,1.83
2022-08-05T07:06:20.609Z,1.67
2022-08-05T07:08:51.943Z,2.00
2022-08-05T07:11:25.198Z,1.92
2022-08-05T07:14:15.355Z,1.70
2022-08-05T07:17:59.398Z,1.70
2022-08-05T07:22:28.857Z,2.05
2022-08-05T07:25:21.805Z,2.08
2022-08-05T07:27:57.585Z,2.10
2022-08-05T07:30:39.049Z,2.05
2022-08-05T07:33:16.154Z,1.98
2022-08-05T07:36:20.100Z,1.67
2022-08-05T07:38:49.927Z,1.88
2022-08-05T07:42:06.923Z,1.73
2022-08-05T07:44:19.679Z,1.60
2022-08-05T07:46:54.707Z,2.10
2022-08-05T07:49:22.146Z,1.42
2022-08-05T07:51:53.575Z,1.77
2022-08-05T07:54:31.464Z,1.80
2022-08-05T07:57:17.765Z,1.27
2022-08-05T07:59:50.427Z,1.98
2022-08-05T08:02:18.467Z,1.80
2022-08-05T08:04:47.558Z,1.90
2022-08-05T08:07:22.253Z,2.00
2022-08-05T08:09:52.505Z,1.80
2022-08-05T08:12:37.350Z,1.80
2022-08-05T08:15:15.364Z,1.60
2022-08-05T08:17:52.441Z,1.17
2022-08-05T08:21:01.054Z,1.60
2022-08-05T08:23:59.903Z,1.50
2022-08-05T08:26:02.748Z,1.83
2022-08-05T08:28:36.610Z,1.60
2022-08-05T08:31:09.309Z,1.50
2022-08-05T08:33:38.174Z,1.40
2022-08-05T08:36:40.212Z,1.38
2022-08-05T08:38:56.146Z,1.40
2022-08-05T08:41:51.413Z,1.45
2022-08-05T08:48:05.975Z,1.50
2022-08-05T08:50:52.615Z,1.50
2022-08-05T08:53:12.221Z,1.60
2022-08-05T08:56:30.791Z,1.77
2022-08-05T08:59:27.406Z,1.42
2022-08-05T09:01:57.621Z,1.70
2022-08-05T09:05:17.478Z,1.90
2022-08-05T09:07:58.001Z,1.70
2022-08-05T09:10:29.609Z,1.50
2022-08-05T09:14:54.029Z,1.73
2022-08-05T09:17:02.983Z,1.60
2022-08-05T09:19:36.392Z,1.77
2022-08-05T09:22:31.969Z,1.75
2022-08-05T09:25:02.065Z,1.70
2022-08-05T09:28:04.479Z,1.67
2022-08-05T09:30:28.878Z,1.60
2022-08-05T09:33:35.131Z,1.58
2022-08-05T09:36:11.857Z,1.90
2022-08-05T09:38:58.679Z,1.55
2022-08-05T09:41:26.905Z,1.65
2022-08-05T09:46:31.491Z,1.10
2022-08-05T09:49:07.024Z,1.30
2022-08-05T09:51:49.488Z,1.33
2022-08-05T09:54:29.102Z,1.25
2022-08-05T09:57:01.185Z,1.27
2022-08-05T09:59:29.550Z,1.10
2022-08-05T10:02:02.661Z,1.20
2022-08-05T10:04:39.422Z,1.67
2022-08-05T10:07:20.152Z,1.30
2022-08-05T10:10:14.153Z,1.50
2022-08-05T10:12:52.806Z,1.40
2022-08-05T10:15:34.452Z,1.27
2022-08-05T10:18:17.405Z,1.45
2022-08-05T10:21:06.347Z,1.75
2022-08-05T10:23:59.725Z,1.60
2022-08-05T10:26:32.363Z,1.10
2022-08-05T10:29:00.372Z,1.35
2022-08-05T10:32:51.790Z,1.42
2022-08-05T10:34:40.729Z,1.25
2022-08-05T10:37:08.656Z,1.30
2022-08-05T10:40:03.063Z,1.27
2022-08-05T10:42:32.691Z,1.10
2022-08-05T10:45:21.599Z,1.33
2022-08-05T10:48:29.656Z,1.35
2022-08-05T10:51:01.996Z,1.20
2022-08-05T10:53:42.602Z,1.50
2022-08-05T10:56:25.287Z,1.33
2022-08-05T10:58:53.301Z,1.23
2022-08-05T11:01:54.619Z,1.40
2022-08-05T11:04:30.980Z,1.20
2022-08-05T11:07:01.388Z,1.52
2022-08-05T11:09:45.170Z,1.38
2022-08-05T11:12:41.238Z,1.40
2022-08-05T11:18:00.417Z,1.58
2022-08-05T11:20:43.903Z,1.33
2022-08-05T11:24:03.995Z,1.40
2022-08-05T11:26:38.870Z,1.50
2022-08-05T11:29:13.983Z,1.60
2022-08-05T11:31:58.790Z,1.85
2022-08-05T11:34:55.256Z,1.73
2022-08-05T11:38:28.837Z,1.65
2022-08-05T11:41:34.481Z,1.70
2022-08-05T11:44:06.535Z,1.60
2022-08-05T11:46:58.086Z,1.40
2022-08-05T11:49:27.681Z,1.35
2022-08-05T11:51:57.498Z,1.60
2022-08-05T11:54:33.861Z,1.75
2022-08-05T11:57:08.575Z,1.75
2022-08-05T11:59:51.326Z,1.52
2022-08-05T12:02:44.623Z,1.67
2022-08-05T12:05:36.452Z,1.63
2022-08-05T12:08:11.712Z,1.35
2022-08-05T12:10:49.713Z,1.88
2022-08-05T12:13:48.021Z,1.83
2022-08-05T12:16:17.478Z,1.60
2022-08-05T12:18:52.427Z,2.00
2022-08-05T12:21:30.668Z,1.90
2022-08-05T12:24:05.248Z,1.90
2022-08-05T12:29:16.177Z,1.50
2022-08-05T12:32:02.246Z,1.60
2022-08-05T12:34:35.751Z,1.75
2022-08-05T12:37:16.965Z,1.60
2022-08-05T12:42:31.878Z,1.65
2022-08-05T12:45:09.463Z,1.80
2022-08-05T12:48:01.081Z,1.80
2022-08-05T12:50:25.813Z,1.60
2022-08-05T12:53:01.021Z,1.70
2022-08-05T12:58:49.001Z,1.90
2022-08-05T13:02:02.289Z,2.15
2022-08-05T13:03:48.704Z,1.77
2022-08-05T13:06:51.560Z,1.70
2022-08-05T13:09:28.286Z,1.60
2022-08-05T13:12:16.421Z,1.88
2022-08-05T13:15:07.431Z,1.90
2022-08-05T13:17:41.848Z,1.80
2022-08-05T13:23:27.472Z,1.77
2022-08-05T13:25:59.321Z,1.95
2022-08-05T13:28:34.770Z,2.33
2022-08-05T13:32:04.504Z,2.20
2022-08-05T13:37:44.625Z,1.50
2022-08-05T13:40:24.543Z,2.10
2022-08-05T13:43:44.496Z,1.83
2022-08-05T13:45:50.812Z,1.92
2022-08-05T13:48:57.716Z,1.80
2022-08-05T13:51:09.922Z,2.00
2022-08-05T13:53:47.795Z,1.90
2022-08-05T13:56:18.428Z,1.90
2022-08-05T13:58:53.025Z,1.75
2022-08-05T14:01:24.701Z,2.10
2022-08-05T14:04:26.504Z,2.30
2022-08-05T14:07:11.878Z,2.00
2022-08-05T14:09:46.121Z,1.95
2022-08-05T14:12:17.482Z,2.20
2022-08-05T14:14:46.051Z,1.80
2022-08-05T14:17:26.943Z,1.90
2022-08-05T14:20:00.855Z,2.20
2022-08-05T14:22:30.420Z,1.85
2022-08-05T14:25:02.717Z,1.90
2022-08-05T14:27:34.000Z,1.80
2022-08-05T14:30:04.817Z,1.90
2022-08-05T14:32:48.701Z,2.15
2022-08-05T14:35:16.229Z,2.13
2022-08-05T14:37:52.108Z,2.20
2022-08-05T14:44:09.755Z,2.17
2022-08-05T14:46:48.512Z,2.28
2022-08-05T14:49:16.331Z,2.20
2022-08-05T14:51:43.748Z,2.00
2022-08-05T14:54:28.544Z,1.98
2022-08-05T14:56:58.671Z,1.90
2022-08-05T14:59:29.557Z,2.33
2022-08-05T15:02:03.623Z,2.10
2022-08-05T15:04:51.074Z,2.08
2022-08-05T15:09:08.463Z,1.90
2022-08-05T15:12:03.969Z,2.13
2022-08-05T15:14:34.615Z,1.90
2022-08-05T15:17:09.680Z,2.00
2022-08-05T15:20:33.729Z,2.03
2022-08-05T15:23:14.430Z,1.95
2022-08-05T15:32:57.902Z,2.00
2022-08-05T15:35:26.812Z,2.08
2022-08-05T15:41:22.532Z,1.95
2022-08-05T15:43:54.863Z,1.95
2022-08-05T15:46:24.115Z,1.92
2022-08-05T15:49:00.994Z,1.90
2022-08-05T15:52:03.723Z,2.00
2022-08-05T15:54:34.590Z,2.10
2022-08-05T15:57:07.382Z,2.10
2022-08-05T15:59:35.807Z,2.00
2022-08-05T16:02:03.338Z,2.25
2022-08-05T16:04:37.512Z,2.15
2022-08-05T16:07:06.601Z,2.03
2022-08-05T16:09:41.785Z,2.05
2022-08-05T16:12:09.672Z,2.38
2022-08-05T16:15:10.901Z,2.25
2022-08-05T16:17:57.515Z,2.00
2022-08-05T16:20:28.515Z,2.20
2022-08-05T16:22:59.906Z,2.20
2022-08-05T16:25:33.874Z,2.25
2022-08-05T16:28:06.126Z,1.83
2022-08-05T16:30:34.257Z,2.20
2022-08-05T16:33:47.611Z,1.90
2022-08-05T16:36:15.022Z,2.00
2022-08-05T16:38:54.433Z,2.00
2022-08-05T16:42:27.780Z,2.08
2022-08-05T16:44:15.641Z,1.70
2022-08-05T16:46:55.948Z,2.10
2022-08-05T16:49:24.029Z,2.20
2022-08-05T16:51:54.860Z,2.10
2022-08-05T16:54:49.629Z,1.90
2022-08-05T16:57:22.126Z,2.40
2022-08-05T16:59:51.757Z,2.08
2022-08-05T17:02:32.140Z,2.42
2022-08-05T17:04:59.430Z,2.20
2022-08-05T17:07:39.283Z,2.20
2022-08-05T17:10:15.042Z,2.15
2022-08-05T17:12:51.172Z,2.03
2022-08-05T17:15:19.941Z,2.40
2022-08-05T17:17:56.388Z,2.10
2022-08-05T17:20:25.471Z,2.10
2022-08-05T17:22:55.326Z,2.00
2022-08-05T17:25:39.833Z,2.10
2022-08-05T17:28:33.207Z,2.28
2022-08-05T17:31:08.474Z,2.30
2022-08-05T17:33:50.863Z,2.17
2022-08-05T17:36:33.628Z,1.98
2022-08-05T17:39:02.883Z,2.10
2022-08-05T17:42:18.208Z,2.13
2022-08-05T17:44:50.122Z,2.17
2022-08-05T17:47:22.097Z,2.08
2022-08-05T17:50:22.636Z,2.30
2022-08-05T17:56:28.406Z,2.20
2022-08-05T17:58:56.210Z,2.30
2022-08-05T18:02:10.815Z,2.15
2022-08-05T18:04:56.749Z,2.20
2022-08-05T18:07:48.402Z,2.30
2022-08-05T18:11:03.174Z,2.08
2022-08-05T18:13:36.925Z,2.17
2022-08-05T18:16:13.623Z,2.38
2022-08-05T18:18:41.451Z,2.40
2022-08-05T18:21:21.015Z,2.08
2022-08-05T18:23:53.646Z,2.38
2022-08-05T18:26:27.715Z,2.13
2022-08-05T18:29:00.640Z,2.20
2022-08-05T18:31:33.067Z,2.40
2022-08-05T18:34:06.422Z,2.28
2022-08-05T18:37:05.456Z,2.22
2022-08-05T18:40:29.840Z,2.60
2022-08-05T18:42:28.023Z,2.75
2022-08-05T18:48:51.790Z,2.47
2022-08-05T18:52:11.040Z,2.78
2022-08-05T18:55:14.041Z,2.63
2022-08-05T18:58:04.893Z,2.60
2022-08-05T19:00:56.561Z,2.85
2022-08-05T19:05:02.516Z,2.72
2022-08-05T19:07:49.573Z,2.70
2022-08-05T19:10:27.832Z,2.63
2022-08-05T19:12:59.237Z,2.50
2022-08-05T19:15:59.373Z,2.75
2022-08-05T19:18:31.799Z,2.38
2022-08-05T19:20:59.675Z,3.08
2022-08-05T19:24:05.543Z,3.00
2022-08-05T19:26:24.012Z,3.00
2022-08-05T19:28:52.595Z,2.47
2022-08-05T19:31:21.525Z,2.10
2022-08-05T19:33:56.448Z,1.85
2022-08-05T19:36:25.822Z,2.30
2022-08-05T19:39:00.730Z,1.98
2022-08-05T19:42:06.587Z,2.40
2022-08-05T19:44:44.763Z,2.75
2022-08-05T19:47:15.312Z,2.30
2022-08-05T19:49:45.260Z,2.60
2022-08-05T19:52:31.519Z,2.03
2022-08-05T19:55:06.779Z,1.95
2022-08-05T20:02:02.920Z,2.20
2022-08-05T20:04:30.782Z,2.00
2022-08-05T20:06:58.325Z,1.80
2022-08-05T20:09:54.770Z,1.85
2022-08-05T20:12:36.442Z,1.80
2022-08-05T20:15:06.788Z,1.70
2022-08-05T20:17:38.887Z,1.80
2022-08-05T20:20:09.527Z,1.70
2022-08-05T20:23:12.476Z,1.50
2022-08-05T20:26:15.323Z,2.10
2022-08-05T20:29:34.409Z,1.80
2022-08-05T20:32:29.789Z,1.60
2022-08-05T20:34:57.177Z,1.70
2022-08-05T20:38:05.724Z,1.60
2022-08-05T20:40:15.116Z,1.80
2022-08-05T20:42:45.308Z,1.60
2022-08-05T20:45:13.319Z,2.08
2022-08-05T20:47:40.585Z,1.90
2022-08-05T20:50:08.710Z,1.40
2022-08-05T20:52:42.176Z,1.83
2022-08-05T20:55:55.293Z,1.90
2022-08-05T20:57:57.468Z,2.10
2022-08-05T21:00:44.355Z,2.17
2022-08-05T21:03:12.201Z,2.25
2022-08-05T21:06:28.292Z,1.73
2022-08-05T21:09:00.348Z,1.90
2022-08-05T21:12:09.901Z,1.70
2022-08-05T21:14:18.187Z,1.80
2022-08-05T21:16:56.190Z,1.70
2022-08-05T21:19:23.847Z,1.58
2022-08-05T21:21:53.983Z,1.73
2022-08-05T21:24:21.577Z,1.70
2022-08-05T21:26:58.016Z,1.92
2022-08-05T21:29:32.205Z,1.77
2022-08-05T21:32:29.871Z,1.83
2022-08-05T21:35:09.045Z,1.73
2022-08-05T21:37:52.658Z,2.15
2022-08-05T21:42:53.512Z,1.80
2022-08-05T21:45:38.086Z,2.15
2022-08-05T21:48:13.589Z,1.95
2022-08-05T21:50:54.072Z,2.33
2022-08-05T21:53:27.110Z,2.28
2022-08-05T21:56:16.499Z,2.30
2022-08-05T21:58:57.007Z,2.90
2022-08-05T22:01:29.183Z,2.35
2022-08-05T22:04:28.344Z,2.60
2022-08-05T22:06:55.746Z,2.13
2022-08-05T22:09:25.135Z,2.20
2022-08-05T22:12:12.418Z,2.15
2022-08-05T22:14:44.855Z,2.40
2022-08-05T22:17:12.326Z,2.50
2022-08-05T22:20:01.441Z,2.10
2022-08-05T22:22:31.132Z,2.00
2022-08-05T22:25:27.300Z,2.35
2022-08-05T22:28:09.781Z,2.25
2022-08-05T22:30:56.845Z,2.05
2022-08-05T22:33:55.956Z,2.08
2022-08-05T22:36:14.523Z,2.30
2022-08-05T22:38:48.456Z,2.00
2022-08-05T22:42:05.727Z,2.42
2022-08-05T22:44:09.027Z,2.50
2022-08-05T22:46:40.065Z,2.20
2022-08-05T22:49:46.051Z,2.22
2022-08-05T22:52:04.498Z,2.20
2022-08-05T22:54:36.339Z,2.28
2022-08-05T22:57:05.596Z,2.28
2022-08-05T22:59:48.287Z,2.08
2022-08-05T23:02:28.935Z,1.88
2022-08-05T23:05:01.978Z,2.28
2022-08-05T23:10:12.511Z,2.33
2022-08-05T23:12:40.340Z,2.22
2022-08-05T23:15:11.864Z,2.15
2022-08-05T23:18:00.128Z,2.15
2022-08-05T23:20:26.967Z,2.50
2022-08-05T23:22:56.032Z,2.10
2022-08-05T23:25:51.447Z,2.05
2022-08-05T23:28:15.790Z,2.35
2022-08-05T23:30:53.767Z,2.28
2022-08-05T23:33:26.478Z,2.00
2022-08-05T23:36:11.191Z,2.22
2022-08-05T23:38:42.814Z,1.92
2022-08-05T23:41:11.618Z,2.40
2022-08-05T23:44:05.623Z,1.90
2022-08-05T23:46:29.807Z,1.85
2022-08-05T23:49:00.533Z,2.30
2022-08-05T23:51:54.328Z,2.00
2022-08-05T23:54:34.262Z,2.40
2022-08-05T23:57:06.836Z,2.00
